Fancher, Illinois
Current Conditions -  °F | °C
As of 9:35 PM on Monday 22 Dec 2014 (Local Time) from K1H2 Reporting Station
Moderate Rain Moderate Rain  
Wind Chill: 44°   Ceiling: 700
Heat Index: 49°   Visibility: 4mi
Dew Point: 46°   Wind: 13mph
Humidity: 90%   Direction: 130°SE
Pressure: 29.59"   Gusts: NA
Location:  39.2654°N, 88.7413°W
Report Text: K1H2 230335Z AUTO 13011KT 4SM RA OVC007 10/08 A2959 RMK AO2 P0001 T00960080
Loading
Personal Weather Stations






























Interactive Weather Map New forecast layout! Learn more

10-Day Weather Forecast

Advertisements
Track Severe Weather on mobile